createdAt,value
2019-03-02T00:01:49.565Z,2.8
2019-03-02T00:06:51.580Z,2.8
2019-03-02T00:11:56.432Z,2.8
2019-03-02T00:16:56.499Z,2.9
2019-03-02T00:21:59.000Z,2.9
2019-03-02T00:27:01.489Z,2.8
2019-03-02T00:32:05.773Z,2.8
2019-03-02T00:37:06.364Z,2.7
2019-03-02T00:42:08.835Z,2.7
2019-03-02T00:47:11.307Z,2.6
2019-03-02T00:52:13.758Z,2.6
2019-03-02T00:57:18.594Z,2.5
2019-03-02T01:02:18.694Z,2.5
2019-03-02T01:07:23.584Z,2.6
2019-03-02T01:12:23.699Z,2.5
2019-03-02T01:17:26.820Z,2.5
2019-03-02T01:22:28.526Z,2.6
2019-03-02T01:27:31.661Z,2.5
2019-03-02T01:32:33.453Z,2.5
2019-03-02T01:37:35.912Z,2.5
2019-03-02T01:42:38.390Z,2.5
2019-03-02T01:47:40.881Z,2.4
2019-03-02T01:52:43.335Z,2.4
2019-03-02T01:57:48.730Z,2.3
2019-03-02T02:02:48.263Z,2.3
2019-03-02T02:07:54.026Z,2.3
2019-03-02T02:12:53.170Z,2.3
2019-03-02T02:17:55.639Z,2.3
2019-03-02T02:22:58.094Z,2.3
2019-03-02T02:28:00.565Z,2.3
2019-03-02T02:33:05.421Z,2.3
2019-03-02T02:38:05.513Z,2.4
2019-03-02T02:43:07.958Z,2.4
2019-03-02T02:48:10.406Z,2.4
2019-03-02T02:53:12.873Z,2.4
2019-03-02T02:58:17.430Z,2.4
2019-03-02T03:03:20.671Z,2.4
2019-03-02T03:08:20.285Z,2.4
2019-03-02T03:13:22.722Z,2.4
2019-03-02T03:18:25.331Z,2.3
2019-03-02T03:23:27.714Z,2.4
2019-03-02T03:28:32.153Z,2.4
2019-03-02T03:33:41.253Z,2.4
2019-03-02T03:38:35.074Z,2.4
2019-03-02T03:43:42.392Z,2.5
2019-03-02T03:48:39.980Z,2.4
2019-03-02T03:53:42.454Z,2.5
2019-03-02T03:58:44.992Z,2.4
2019-03-02T04:03:51.604Z,2.5
2019-03-02T04:08:49.936Z,2.4
2019-03-02T04:13:52.312Z,2.4
2019-03-02T04:18:56.977Z,2.3
2019-03-02T04:24:01.102Z,2.3
2019-03-02T04:28:59.705Z,2.3
2019-03-02T04:34:02.209Z,2.3
2019-03-02T04:39:04.636Z,2.3
2019-03-02T04:44:07.093Z,2.3
2019-03-02T04:49:10.812Z,2.4
2019-03-02T04:54:12.033Z,2.4
2019-03-02T04:59:14.492Z,2.4
2019-03-02T05:04:17.051Z,2.5
2019-03-02T05:09:19.424Z,2.4
2019-03-02T05:14:21.928Z,2.4
2019-03-02T05:19:29.917Z,2.4
2019-03-02T05:24:26.858Z,2.5
2019-03-02T05:29:29.297Z,2.5
2019-03-02T05:34:31.733Z,2.5
2019-03-02T05:39:34.202Z,2.6
2019-03-02T05:44:36.672Z,2.6
2019-03-02T05:49:39.197Z,2.6
2019-03-02T05:54:42.360Z,2.6
2019-03-02T05:59:44.067Z,2.5
2019-03-02T06:04:46.508Z,2.5
2019-03-02T06:09:50.099Z,2.7
2019-03-02T06:14:51.466Z,2.6
2019-03-02T06:19:55.710Z,2.7
2019-03-02T06:24:56.366Z,2.7
2019-03-02T06:29:58.844Z,2.8
2019-03-02T06:35:01.357Z,2.8
2019-03-02T06:40:03.857Z,2.9
2019-03-02T06:45:08.895Z,2.9
2019-03-02T06:50:08.725Z,3
2019-03-02T06:55:11.182Z,3
2019-03-02T07:00:13.911Z,3.1
2019-03-02T07:05:16.102Z,3.1
2019-03-02T07:10:21.540Z,3.1
2019-03-02T07:15:21.083Z,3.2
2019-03-02T07:20:23.776Z,3.2
2019-03-02T07:25:25.955Z,3.2
2019-03-02T07:30:28.432Z,3.2
2019-03-02T07:35:30.911Z,3.2
2019-03-02T07:40:33.394Z,3.3
2019-03-02T07:45:36.667Z,3.3
2019-03-02T07:50:38.305Z,3.4
2019-03-02T07:55:40.851Z,3.4
2019-03-02T08:00:43.227Z,3.4
2019-03-02T08:05:46.824Z,3.4
2019-03-02T08:10:48.144Z,3.4
2019-03-02T08:15:50.617Z,3.5
2019-03-02T08:20:53.816Z,3.6
2019-03-02T08:36:00.501Z,3.8
2019-03-02T08:41:02.951Z,3.8
2019-03-02T08:46:07.365Z,3.8
2019-03-02T08:51:07.869Z,3.8
2019-03-02T08:56:12.001Z,3.9
2019-03-02T09:01:15.288Z,3.9
2019-03-02T09:06:15.270Z,3.9
2019-03-02T09:11:17.723Z,3.8
2019-03-02T09:16:20.204Z,3.8
2019-03-02T09:21:22.643Z,3.9
2019-03-02T09:26:25.162Z,4.1
2019-03-02T09:31:27.628Z,4.2
2019-03-02T09:36:31.147Z,4.2
2019-03-02T09:41:32.604Z,4.2
2019-03-02T09:46:34.977Z,4.2
2019-03-02T09:51:37.424Z,4.3
2019-03-02T09:56:39.887Z,4.5
2019-03-02T10:01:42.337Z,4.5
2019-03-02T10:06:44.924Z,4.4
2019-03-02T10:11:47.304Z,4.4
2019-03-02T10:21:52.195Z,4.5
2019-03-02T10:26:54.644Z,4.6
2019-03-02T10:31:57.147Z,4.7
2019-03-02T10:36:59.570Z,4.8
2019-03-02T10:42:02.076Z,4.9
2019-03-02T10:47:04.473Z,5.1
2019-03-02T10:52:09.598Z,5.2
2019-03-02T10:57:09.413Z,5.2
2019-03-02T11:02:11.853Z,5.2
2019-03-02T11:07:14.323Z,5.1
2019-03-02T11:12:17.507Z,5.1
2019-03-02T11:17:19.647Z,5
2019-03-02T11:22:21.740Z,5
2019-03-02T11:27:24.189Z,5.1
2019-03-02T11:32:26.618Z,5.2
2019-03-02T11:37:29.055Z,5.4
2019-03-02T11:42:31.576Z,5.6
2019-03-02T11:47:36.538Z,5.6
2019-03-02T11:52:38.533Z,5.7
2019-03-02T11:57:38.880Z,5.7
2019-03-02T12:02:41.340Z,5.8
2019-03-02T12:07:45.383Z,6
2019-03-02T12:12:46.352Z,6.3
2019-03-02T12:17:48.720Z,6.6
2019-03-02T12:22:51.188Z,6.8
2019-03-02T12:27:54.944Z,7
2019-03-02T12:32:56.074Z,6.7
2019-03-02T12:37:58.555Z,6.8
2019-03-02T12:43:04.008Z,6.8
2019-03-02T12:48:03.509Z,6.9
2019-03-02T12:53:05.915Z,6.8
2019-03-02T12:58:08.402Z,6.7
2019-03-02T13:03:10.827Z,6.6
2019-03-02T13:08:15.215Z,6.6
2019-03-02T13:13:16.861Z,6.5
2019-03-02T13:18:18.211Z,6.4
2019-03-02T13:23:20.752Z,6.4
2019-03-02T13:28:23.098Z,6.3
2019-03-02T13:33:25.566Z,6.2
2019-03-02T13:38:29.900Z,6.3
2019-03-02T13:43:30.515Z,6.2
2019-03-02T13:48:33.046Z,6.2
2019-03-02T13:53:35.433Z,6.2
2019-03-02T13:58:37.851Z,6.2
2019-03-02T14:03:40.329Z,6.1
2019-03-02T14:08:43.336Z,6
2019-03-02T14:13:45.231Z,5.8
2019-03-02T14:18:47.705Z,5.7
2019-03-02T14:23:50.142Z,5.7
2019-03-02T14:28:52.637Z,5.6
2019-03-02T14:33:55.061Z,5.5
2019-03-02T14:39:01.261Z,5.5
2019-03-02T14:44:00.007Z,5.5
2019-03-02T14:49:02.509Z,5.5
2019-03-02T14:54:04.949Z,5.6
2019-03-02T15:04:09.825Z,5.6
2019-03-02T15:09:12.509Z,5.7
2019-03-02T15:14:14.734Z,5.7
2019-03-02T15:19:17.174Z,5.6
2019-03-02T15:24:20.502Z,5.6
2019-03-02T15:29:22.089Z,5.6
2019-03-02T15:34:24.570Z,5.5
2019-03-02T15:39:27.032Z,5.5
2019-03-02T15:44:29.474Z,5.5
2019-03-02T15:49:31.994Z,5.4
2019-03-02T15:54:34.396Z,5.4
2019-03-02T15:59:37.266Z,5.4
2019-03-02T16:04:39.316Z,5.4
2019-03-02T16:09:41.873Z,5.4
2019-03-02T16:14:44.197Z,5.4
2019-03-02T16:19:46.715Z,5.4
2019-03-02T16:24:49.186Z,5.4
2019-03-02T16:29:52.633Z,5.4
2019-03-02T16:34:54.057Z,5.3
2019-03-02T16:39:56.510Z,5.3
2019-03-02T16:44:59.047Z,5.2
2019-03-02T16:50:01.490Z,5.2
2019-03-02T16:55:05.951Z,5.2
2019-03-02T17:00:08.785Z,5.2
2019-03-02T17:05:08.822Z,5.1
2019-03-02T17:10:11.315Z,5.1
2019-03-02T17:15:13.849Z,5.1
2019-03-02T17:20:16.209Z,5.1
2019-03-02T17:25:18.704Z,5.1
2019-03-02T17:30:21.295Z,5.1
2019-03-02T17:35:25.414Z,5.1
2019-03-02T17:40:25.993Z,5.1
2019-03-02T17:45:31.834Z,5.1
2019-03-02T17:50:30.920Z,5.1
2019-03-02T17:55:33.425Z,5.1
2019-03-02T18:00:35.941Z,5.2
2019-03-02T18:05:39.543Z,5.2
2019-03-02T18:10:40.793Z,5.2
2019-03-02T18:15:43.188Z,5.2
2019-03-02T18:20:45.785Z,5.2
2019-03-02T18:25:48.498Z,5.2
2019-03-02T18:30:50.548Z,5.2
2019-03-02T18:35:53.552Z,5.2
2019-03-02T18:40:55.480Z,5.1
2019-03-02T18:45:57.937Z,5
2019-03-02T18:51:03.716Z,5
2019-03-02T18:56:02.903Z,4.9
2019-03-02T19:01:05.298Z,4.9
2019-03-02T19:06:07.751Z,4.9
2019-03-02T19:11:10.223Z,5
2019-03-02T19:16:12.683Z,5.1
2019-03-02T19:21:15.128Z,5.1
2019-03-02T19:26:17.601Z,5.2
2019-03-02T19:31:21.261Z,5.2
2019-03-02T19:36:22.493Z,5.3
2019-03-02T19:41:24.970Z,5.3
2019-03-02T19:46:27.417Z,5.3
2019-03-02T19:51:29.930Z,5.4
2019-03-02T19:56:32.421Z,5.4
2019-03-02T20:01:34.842Z,5.4
2019-03-02T20:06:37.245Z,5.4
2019-03-02T20:11:39.728Z,5.4
2019-03-02T20:16:42.197Z,5.4
2019-03-02T20:21:44.618Z,5.4
2019-03-02T20:26:47.087Z,5.4
2019-03-02T20:31:49.545Z,5.4
2019-03-02T20:36:52.081Z,5.5
2019-03-02T20:41:54.623Z,5.4
2019-03-02T20:46:56.898Z,5.5
2019-03-02T20:51:59.366Z,5.5
2019-03-02T20:57:01.882Z,5.5
2019-03-02T21:02:04.294Z,5.5
2019-03-02T21:07:06.719Z,5.6
2019-03-02T21:12:09.223Z,5.6
2019-03-02T21:17:11.647Z,5.7
2019-03-02T21:22:14.134Z,5.7
2019-03-02T21:27:16.554Z,5.6
2019-03-02T21:32:19.039Z,5.6
2019-03-02T21:37:21.501Z,5.6
2019-03-02T21:42:23.928Z,5.5
2019-03-02T21:47:26.386Z,5.5
2019-03-02T21:52:28.875Z,5.6
2019-03-02T21:57:31.413Z,5.7
2019-03-02T22:02:33.770Z,5.8
2019-03-02T22:07:36.361Z,5.9
2019-03-02T22:12:38.755Z,6
2019-03-02T22:17:41.255Z,6
2019-03-02T22:22:43.594Z,6
2019-03-02T22:27:46.124Z,6
2019-03-02T22:32:48.500Z,6
2019-03-02T22:37:50.948Z,6.1
2019-03-02T22:42:53.446Z,6.2
2019-03-02T22:47:55.868Z,6.2
2019-03-02T22:52:58.329Z,6.3
2019-03-02T22:58:00.827Z,6.4
2019-03-02T23:03:03.244Z,6.5
2019-03-02T23:08:05.728Z,6.6
2019-03-02T23:13:08.167Z,6.7
2019-03-02T23:18:10.943Z,6.7
2019-03-02T23:23:13.070Z,6.7
2019-03-02T23:28:15.616Z,6.8
2019-03-02T23:33:17.989Z,6.8
2019-03-02T23:38:20.449Z,6.9
2019-03-02T23:43:22.915Z,6.9
2019-03-02T23:48:25.401Z,6.9
2019-03-02T23:53:27.841Z,6.9
2019-03-02T23:58:30.599Z,6.8
